Terminal Aerodrome Forecast
Issued by NWS Northern Indiana

Home | Current Version | Previous Version | Text Only | Print | Product List | Glossary On
Versions: 1 2 3 4 5 6 7 8 9 10 11 12 13 14 15
000
FTUS43 KIWX 041724
TAFFWA
TAF
KFWA 041724Z 0418/0518 12009KT P6SM SCT050 OVC080
     FM042000 13009KT 6SM -RASN OVC040
     FM042100 12008KT 4SM -RASN SCT015 OVC030
     FM042200 12006KT 1 1/2SM -SN OVC010
      TEMPO 0422/0501 3/4SM -SN OVC007
     FM050100 19004KT 3SM BR VCSH OVC007
     FM050400 26008KT P6SM OVC010=

USA.gov is the U.S. government's official web portal to all federal, state and local government web resources and services.